sensor_id;sensor_type;location;lat;lon;timestamp;temperature;humidity
52859;DHT22;38721;53.098;6.596;2022-10-15T00:00:44;13.30;99.90
52859;DHT22;38721;53.098;6.596;2022-10-15T00:03:10;13.00;99.90
52859;DHT22;38721;53.098;6.596;2022-10-15T00:05:37;13.10;99.90
52859;DHT22;38721;53.098;6.596;2022-10-15T00:08:10;13.20;99.90
52859;DHT22;38721;53.098;6.596;2022-10-15T00:10:36;13.20;99.90
52859;DHT22;38721;53.098;6.596;2022-10-15T00:13:03;13.00;99.90
52859;DHT22;38721;53.098;6.596;2022-10-15T00:15:29;13.20;99.90
52859;DHT22;38721;53.098;6.596;2022-10-15T00:17:55;13.00;99.90
52859;DHT22;38721;53.098;6.596;2022-10-15T00:20:21;13.20;99.90
52859;DHT22;38721;53.098;6.596;2022-10-15T00:22:47;13.10;99.90
52859;DHT22;38721;53.098;6.596;2022-10-15T00:25:12;13.20;99.90
52859;DHT22;38721;53.098;6.596;2022-10-15T00:27:38;13.10;99.90
52859;DHT22;38721;53.098;6.596;2022-10-15T00:30:05;13.20;99.90
52859;DHT22;38721;53.098;6.596;2022-10-15T00:32:31;13.20;99.90
52859;DHT22;38721;53.098;6.596;2022-10-15T00:35:04;13.00;99.90
52859;DHT22;38721;53.098;6.596;2022-10-15T00:37:33;13.20;99.90
52859;DHT22;38721;53.098;6.596;2022-10-15T00:39:58;13.20;99.90
52859;DHT22;38721;53.098;6.596;2022-10-15T00:42:24;13.00;99.90
52859;DHT22;38721;53.098;6.596;2022-10-15T00:44:56;13.10;99.90
52859;DHT22;38721;53.098;6.596;2022-10-15T00:47:26;13.00;99.90
52859;DHT22;38721;53.098;6.596;2022-10-15T00:50:08;13.00;99.90
52859;DHT22;38721;53.098;6.596;2022-10-15T00:53:03;13.20;99.90
52859;DHT22;38721;53.098;6.596;2022-10-15T00:55:34;13.00;99.90
52859;DHT22;38721;53.098;6.596;2022-10-15T00:58:04;13.10;99.90
52859;DHT22;38721;53.098;6.596;2022-10-15T01:00:33;13.00;99.90
52859;DHT22;38721;53.098;6.596;2022-10-15T01:03:02;13.30;99.90
52859;DHT22;38721;53.098;6.596;2022-10-15T01:05:28;13.20;99.90
52859;DHT22;38721;53.098;6.596;2022-10-15T01:07:54;13.30;99.90
52859;DHT22;38721;53.098;6.596;2022-10-15T01:10:20;13.20;99.90
52859;DHT22;38721;53.098;6.596;2022-10-15T01:17:54;13.20;99.90
52859;DHT22;38721;53.098;6.596;2022-10-15T01:36:36;13.20;99.90
52859;DHT22;38721;53.098;6.596;2022-10-15T01:39:13;13.20;99.90
52859;DHT22;38721;53.098;6.596;2022-10-15T01:41:43;13.10;99.90
52859;DHT22;38721;53.098;6.596;2022-10-15T01:47:04;13.10;99.90
52859;DHT22;38721;53.098;6.596;2022-10-15T01:49:38;13.00;99.90
52859;DHT22;38721;53.098;6.596;2022-10-15T01:52:11;13.20;99.90
52859;DHT22;38721;53.098;6.596;2022-10-15T01:54:38;12.90;99.90
52859;DHT22;38721;53.098;6.596;2022-10-15T01:57:04;13.20;99.90
52859;DHT22;38721;53.098;6.596;2022-10-15T01:59:31;13.20;99.90
52859;DHT22;38721;53.098;6.596;2022-10-15T02:01:58;13.20;99.90
52859;DHT22;38721;53.098;6.596;2022-10-15T02:04:29;13.10;99.90
52859;DHT22;38721;53.098;6.596;2022-10-15T02:07:09;13.00;99.90
52859;DHT22;38721;53.098;6.596;2022-10-15T02:21:06;13.20;99.90
52859;DHT22;38721;53.098;6.596;2022-10-15T02:23:40;13.10;99.90
52859;DHT22;38721;53.098;6.596;2022-10-15T02:26:12;13.20;99.90
52859;DHT22;38721;53.098;6.596;2022-10-15T02:28:42;13.20;99.90
52859;DHT22;38721;53.098;6.596;2022-10-15T02:31:11;13.20;99.90
52859;DHT22;38721;53.098;6.596;2022-10-15T02:33:41;13.10;99.90
52859;DHT22;38721;53.098;6.596;2022-10-15T02:36:07;13.00;99.90
52859;DHT22;38721;53.098;6.596;2022-10-15T02:38:34;13.20;99.90
52859;DHT22;38721;53.098;6.596;2022-10-15T02:41:01;13.00;99.90
52859;DHT22;38721;53.098;6.596;2022-10-15T02:43:27;13.00;99.90
52859;DHT22;38721;53.098;6.596;2022-10-15T02:45:52;13.10;99.90
52859;DHT22;38721;53.098;6.596;2022-10-15T02:48:18;13.00;99.90
52859;DHT22;38721;53.098;6.596;2022-10-15T02:50:44;13.20;99.90
52859;DHT22;38721;53.098;6.596;2022-10-15T02:53:09;13.20;99.90
52859;DHT22;38721;53.098;6.596;2022-10-15T02:55:35;13.10;99.90
52859;DHT22;38721;53.098;6.596;2022-10-15T02:58:00;13.00;99.90
52859;DHT22;38721;53.098;6.596;2022-10-15T03:00:26;13.00;99.90
52859;DHT22;38721;53.098;6.596;2022-10-15T03:02:52;13.20;99.90
52859;DHT22;38721;53.098;6.596;2022-10-15T03:05:18;13.10;99.90
52859;DHT22;38721;53.098;6.596;2022-10-15T03:07:44;13.00;99.90
52859;DHT22;38721;53.098;6.596;2022-10-15T03:10:09;13.20;99.90
52859;DHT22;38721;53.098;6.596;2022-10-15T03:12:35;13.20;99.90
52859;DHT22;38721;53.098;6.596;2022-10-15T03:15:01;13.20;99.90
52859;DHT22;38721;53.098;6.596;2022-10-15T03:17:27;13.10;99.90
52859;DHT22;38721;53.098;6.596;2022-10-15T03:19:52;13.00;99.90
52859;DHT22;38721;53.098;6.596;2022-10-15T03:22:18;13.10;99.90
52859;DHT22;38721;53.098;6.596;2022-10-15T03:24:43;13.10;99.90
52859;DHT22;38721;53.098;6.596;2022-10-15T03:27:09;13.00;99.90
52859;DHT22;38721;53.098;6.596;2022-10-15T03:29:35;12.80;99.90
52859;DHT22;38721;53.098;6.596;2022-10-15T03:32:00;13.10;99.90
52859;DHT22;38721;53.098;6.596;2022-10-15T03:34:29;13.00;99.90
52859;DHT22;38721;53.098;6.596;2022-10-15T03:36:55;12.90;99.90
52859;DHT22;38721;53.098;6.596;2022-10-15T03:39:20;12.90;99.90
52859;DHT22;38721;53.098;6.596;2022-10-15T03:41:46;12.90;99.90
52859;DHT22;38721;53.098;6.596;2022-10-15T03:44:12;13.00;99.90
52859;DHT22;38721;53.098;6.596;2022-10-15T03:46:37;13.00;99.90
52859;DHT22;38721;53.098;6.596;2022-10-15T03:49:03;13.00;99.90
52859;DHT22;38721;53.098;6.596;2022-10-15T03:51:29;12.80;99.90
52859;DHT22;38721;53.098;6.596;2022-10-15T03:53:55;12.90;99.90
52859;DHT22;38721;53.098;6.596;2022-10-15T03:56:21;13.10;99.90
52859;DHT22;38721;53.098;6.596;2022-10-15T03:58:46;12.90;99.90
52859;DHT22;38721;53.098;6.596;2022-10-15T04:01:14;13.10;99.90
52859;DHT22;38721;53.098;6.596;2022-10-15T04:03:40;12.90;99.90
52859;DHT22;38721;53.098;6.596;2022-10-15T04:06:06;12.90;99.90
52859;DHT22;38721;53.098;6.596;2022-10-15T04:08:32;13.00;99.90
52859;DHT22;38721;53.098;6.596;2022-10-15T04:10:58;13.00;99.90
52859;DHT22;38721;53.098;6.596;2022-10-15T04:13:28;12.80;99.90
52859;DHT22;38721;53.098;6.596;2022-10-15T04:15:54;12.80;99.90
52859;DHT22;38721;53.098;6.596;2022-10-15T04:18:20;12.70;99.90
52859;DHT22;38721;53.098;6.596;2022-10-15T04:20:49;12.80;99.90
52859;DHT22;38721;53.098;6.596;2022-10-15T04:23:16;12.80;99.90
52859;DHT22;38721;53.098;6.596;2022-10-15T04:25:41;12.70;99.90
52859;DHT22;38721;53.098;6.596;2022-10-15T04:28:07;12.80;99.90
52859;DHT22;38721;53.098;6.596;2022-10-15T04:30:33;13.00;99.90
52859;DHT22;38721;53.098;6.596;2022-10-15T04:32:59;12.90;99.90
52859;DHT22;38721;53.098;6.596;2022-10-15T04:35:25;12.90;99.90
52859;DHT22;38721;53.098;6.596;2022-10-15T04:37:50;12.80;99.90
52859;DHT22;38721;53.098;6.596;2022-10-15T04:40:16;12.90;99.90
52859;DHT22;38721;53.098;6.596;2022-10-15T04:42:43;12.70;99.90
52859;DHT22;38721;53.098;6.596;2022-10-15T04:45:10;12.80;99.90
52859;DHT22;38721;53.098;6.596;2022-10-15T04:47:36;12.80;99.90
52859;DHT22;38721;53.098;6.596;2022-10-15T04:50:02;12.80;99.90
52859;DHT22;38721;53.098;6.596;2022-10-15T04:52:28;12.90;99.90
52859;DHT22;38721;53.098;6.596;2022-10-15T04:54:53;12.90;99.90
52859;DHT22;38721;53.098;6.596;2022-10-15T04:57:19;12.70;99.90
52859;DHT22;38721;53.098;6.596;2022-10-15T04:59:45;12.90;99.90
52859;DHT22;38721;53.098;6.596;2022-10-15T05:02:13;12.80;99.90
52859;DHT22;38721;53.098;6.596;2022-10-15T05:04:39;12.60;99.90
52859;DHT22;38721;53.098;6.596;2022-10-15T05:07:05;12.90;99.90
52859;DHT22;38721;53.098;6.596;2022-10-15T05:09:30;12.70;99.90
52859;DHT22;38721;53.098;6.596;2022-10-15T05:11:56;12.70;99.90
52859;DHT22;38721;53.098;6.596;2022-10-15T05:14:22;12.60;99.90
52859;DHT22;38721;53.098;6.596;2022-10-15T05:16:47;12.60;99.90
52859;DHT22;38721;53.098;6.596;2022-10-15T05:19:13;12.90;99.90
52859;DHT22;38721;53.098;6.596;2022-10-15T05:21:41;12.70;99.90
52859;DHT22;38721;53.098;6.596;2022-10-15T05:24:08;12.80;99.90
52859;DHT22;38721;53.098;6.596;2022-10-15T05:26:34;12.70;99.90
52859;DHT22;38721;53.098;6.596;2022-10-15T05:29:00;12.70;99.90
52859;DHT22;38721;53.098;6.596;2022-10-15T05:31:28;12.80;99.90
52859;DHT22;38721;53.098;6.596;2022-10-15T05:33:55;12.80;99.90
52859;DHT22;38721;53.098;6.596;2022-10-15T05:36:24;12.60;99.90
52859;DHT22;38721;53.098;6.596;2022-10-15T05:39:16;12.60;99.90
52859;DHT22;38721;53.098;6.596;2022-10-15T05:41:42;12.60;99.90
52859;DHT22;38721;53.098;6.596;2022-10-15T05:44:11;12.80;99.90
52859;DHT22;38721;53.098;6.596;2022-10-15T05:46:37;12.80;99.90
52859;DHT22;38721;53.098;6.596;2022-10-15T05:49:02;12.70;99.90
52859;DHT22;38721;53.098;6.596;2022-10-15T05:51:28;12.70;99.90
52859;DHT22;38721;53.098;6.596;2022-10-15T05:53:58;12.60;99.90
52859;DHT22;38721;53.098;6.596;2022-10-15T05:56:24;12.70;99.90
52859;DHT22;38721;53.098;6.596;2022-10-15T05:58:50;12.80;99.90
52859;DHT22;38721;53.098;6.596;2022-10-15T06:01:16;12.60;99.90
52859;DHT22;38721;53.098;6.596;2022-10-15T06:03:42;12.60;99.90
52859;DHT22;38721;53.098;6.596;2022-10-15T06:06:24;12.70;99.90
52859;DHT22;38721;53.098;6.596;2022-10-15T06:08:52;12.70;99.90
52859;DHT22;38721;53.098;6.596;2022-10-15T06:11:18;12.60;99.90
52859;DHT22;38721;53.098;6.596;2022-10-15T06:13:45;12.80;99.90
52859;DHT22;38721;53.098;6.596;2022-10-15T06:16:11;12.80;99.90
52859;DHT22;38721;53.098;6.596;2022-10-15T06:18:38;12.80;99.90
52859;DHT22;38721;53.098;6.596;2022-10-15T06:21:05;12.60;99.90
52859;DHT22;38721;53.098;6.596;2022-10-15T06:23:34;12.60;99.90
52859;DHT22;38721;53.098;6.596;2022-10-15T06:26:04;12.90;99.90
52859;DHT22;38721;53.098;6.596;2022-10-15T06:28:31;12.70;99.90
52859;DHT22;38721;53.098;6.596;2022-10-15T06:30:58;12.80;99.90
52859;DHT22;38721;53.098;6.596;2022-10-15T06:33:28;12.90;99.90
52859;DHT22;38721;53.098;6.596;2022-10-15T06:35:54;12.70;99.90
52859;DHT22;38721;53.098;6.596;2022-10-15T06:38:20;12.90;99.90
52859;DHT22;38721;53.098;6.596;2022-10-15T06:40:46;12.70;99.90
52859;DHT22;38721;53.098;6.596;2022-10-15T06:43:12;12.80;99.90
52859;DHT22;38721;53.098;6.596;2022-10-15T06:45:42;12.80;99.90
52859;DHT22;38721;53.098;6.596;2022-10-15T06:48:09;12.70;99.90
52859;DHT22;38721;53.098;6.596;2022-10-15T06:50:36;13.10;99.90
52859;DHT22;38721;53.098;6.596;2022-10-15T06:53:03;13.00;99.90
52859;DHT22;38721;53.098;6.596;2022-10-15T06:55:29;13.10;99.90
52859;DHT22;38721;53.098;6.596;2022-10-15T06:57:56;13.10;99.90
52859;DHT22;38721;53.098;6.596;2022-10-15T07:00:25;13.20;99.90
52859;DHT22;38721;53.098;6.596;2022-10-15T07:02:51;13.10;99.90
52859;DHT22;38721;53.098;6.596;2022-10-15T07:05:17;13.30;99.90
52859;DHT22;38721;53.098;6.596;2022-10-15T07:07:53;13.00;99.90
52859;DHT22;38721;53.098;6.596;2022-10-15T07:10:20;13.20;99.90
52859;DHT22;38721;53.098;6.596;2022-10-15T07:12:45;13.30;99.90
52859;DHT22;38721;53.098;6.596;2022-10-15T07:15:11;13.10;99.90
52859;DHT22;38721;53.098;6.596;2022-10-15T07:17:37;13.40;99.90
52859;DHT22;38721;53.098;6.596;2022-10-15T07:20:07;13.40;99.90
52859;DHT22;38721;53.098;6.596;2022-10-15T07:22:32;13.20;99.90
52859;DHT22;38721;53.098;6.596;2022-10-15T07:24:58;13.50;99.90
52859;DHT22;38721;53.098;6.596;2022-10-15T07:27:26;13.30;99.90
52859;DHT22;38721;53.098;6.596;2022-10-15T07:29:52;13.30;99.90
52859;DHT22;38721;53.098;6.596;2022-10-15T07:32:17;13.50;99.90
52859;DHT22;38721;53.098;6.596;2022-10-15T07:34:43;13.50;99.90
52859;DHT22;38721;53.098;6.596;2022-10-15T07:37:09;13.60;99.90
52859;DHT22;38721;53.098;6.596;2022-10-15T07:39:35;13.80;99.90
52859;DHT22;38721;53.098;6.596;2022-10-15T07:42:00;13.70;99.90
52859;DHT22;38721;53.098;6.596;2022-10-15T07:44:26;13.60;99.90
52859;DHT22;38721;53.098;6.596;2022-10-15T07:46:54;13.80;99.90
52859;DHT22;38721;53.098;6.596;2022-10-15T07:49:20;13.80;99.90
52859;DHT22;38721;53.098;6.596;2022-10-15T07:51:46;13.90;99.90
52859;DHT22;38721;53.098;6.596;2022-10-15T07:54:14;14.00;99.90
52859;DHT22;38721;53.098;6.596;2022-10-15T07:56:40;13.90;99.90
52859;DHT22;38721;53.098;6.596;2022-10-15T07:59:07;13.70;99.90
52859;DHT22;38721;53.098;6.596;2022-10-15T08:01:33;13.90;99.90
52859;DHT22;38721;53.098;6.596;2022-10-15T08:03:58;14.00;99.90
52859;DHT22;38721;53.098;6.596;2022-10-15T08:06:24;13.70;99.90
52859;DHT22;38721;53.098;6.596;2022-10-15T08:08:50;14.00;99.90
52859;DHT22;38721;53.098;6.596;2022-10-15T08:11:16;13.80;99.90
52859;DHT22;38721;53.098;6.596;2022-10-15T08:13:43;14.20;99.90
52859;DHT22;38721;53.098;6.596;2022-10-15T08:16:15;14.00;99.90
52859;DHT22;38721;53.098;6.596;2022-10-15T08:18:41;14.40;99.90
52859;DHT22;38721;53.098;6.596;2022-10-15T08:21:10;14.50;99.90
52859;DHT22;38721;53.098;6.596;2022-10-15T08:23:37;14.30;99.90
52859;DHT22;38721;53.098;6.596;2022-10-15T08:26:03;14.40;99.90
52859;DHT22;38721;53.098;6.596;2022-10-15T08:28:30;14.30;99.90
52859;DHT22;38721;53.098;6.596;2022-10-15T08:30:57;14.20;99.90
52859;DHT22;38721;53.098;6.596;2022-10-15T08:33:29;14.30;99.90
52859;DHT22;38721;53.098;6.596;2022-10-15T08:35:55;14.70;99.90
52859;DHT22;38721;53.098;6.596;2022-10-15T08:38:21;14.70;99.90
52859;DHT22;38721;53.098;6.596;2022-10-15T08:40:54;14.60;99.90
52859;DHT22;38721;53.098;6.596;2022-10-15T08:43:28;14.80;99.90
52859;DHT22;38721;53.098;6.596;2022-10-15T08:45:58;15.00;99.90
52859;DHT22;38721;53.098;6.596;2022-10-15T08:48:54;14.80;99.90
52859;DHT22;38721;53.098;6.596;2022-10-15T08:51:23;15.10;99.90
52859;DHT22;38721;53.098;6.596;2022-10-15T08:54:01;14.90;99.90
52859;DHT22;38721;53.098;6.596;2022-10-15T08:56:33;14.80;99.90
52859;DHT22;38721;53.098;6.596;2022-10-15T09:02:30;14.80;99.90
52859;DHT22;38721;53.098;6.596;2022-10-15T09:11:04;14.90;99.90
52859;DHT22;38721;53.098;6.596;2022-10-15T09:13:34;14.90;99.90
52859;DHT22;38721;53.098;6.596;2022-10-15T09:18:41;14.50;99.90
52859;DHT22;38721;53.098;6.596;2022-10-15T09:21:12;14.70;99.90
52859;DHT22;38721;53.098;6.596;2022-10-15T09:23:39;14.60;99.90
52859;DHT22;38721;53.098;6.596;2022-10-15T09:37:08;14.50;99.90
52859;DHT22;38721;53.098;6.596;2022-10-15T09:44:58;14.50;99.90
52859;DHT22;38721;53.098;6.596;2022-10-15T09:47:33;14.50;99.90
52859;DHT22;38721;53.098;6.596;2022-10-15T09:50:00;14.60;99.90
52859;DHT22;38721;53.098;6.596;2022-10-15T09:55:33;14.60;99.90
52859;DHT22;38721;53.098;6.596;2022-10-15T09:58:09;14.50;99.90
52859;DHT22;38721;53.098;6.596;2022-10-15T10:01:00;14.40;99.90
52859;DHT22;38721;53.098;6.596;2022-10-15T10:03:28;14.40;99.90
52859;DHT22;38721;53.098;6.596;2022-10-15T10:08:38;14.10;99.90
52859;DHT22;38721;53.098;6.596;2022-10-15T10:11:08;14.10;99.90
52859;DHT22;38721;53.098;6.596;2022-10-15T10:16:11;14.10;99.90
52859;DHT22;38721;53.098;6.596;2022-10-15T10:18:38;14.30;99.90
52859;DHT22;38721;53.098;6.596;2022-10-15T10:21:07;14.50;99.90
52859;DHT22;38721;53.098;6.596;2022-10-15T10:23:45;14.30;99.90
52859;DHT22;38721;53.098;6.596;2022-10-15T10:26:10;14.50;99.90
52859;DHT22;38721;53.098;6.596;2022-10-15T10:31:06;14.30;99.90
52859;DHT22;38721;53.098;6.596;2022-10-15T10:33:40;14.50;99.90
52859;DHT22;38721;53.098;6.596;2022-10-15T10:36:28;14.50;99.90
52859;DHT22;38721;53.098;6.596;2022-10-15T10:41:55;14.70;99.90
52859;DHT22;38721;53.098;6.596;2022-10-15T10:44:36;14.90;99.90
52859;DHT22;38721;53.098;6.596;2022-10-15T10:47:11;15.10;99.90
52859;DHT22;38721;53.098;6.596;2022-10-15T10:49:43;14.90;99.90
52859;DHT22;38721;53.098;6.596;2022-10-15T10:52:34;15.20;99.90
52859;DHT22;38721;53.098;6.596;2022-10-15T10:55:16;15.40;99.90
52859;DHT22;38721;53.098;6.596;2022-10-15T10:57:50;15.50;99.90
52859;DHT22;38721;53.098;6.596;2022-10-15T11:02:51;15.40;99.90
52859;DHT22;38721;53.098;6.596;2022-10-15T11:05:28;15.40;99.90
52859;DHT22;38721;53.098;6.596;2022-10-15T11:14:23;16.20;99.90
52859;DHT22;38721;53.098;6.596;2022-10-15T11:17:13;16.40;99.90
52859;DHT22;38721;53.098;6.596;2022-10-15T11:25:38;16.00;99.90
52859;DHT22;38721;53.098;6.596;2022-10-15T11:31:20;15.80;99.90
52859;DHT22;38721;53.098;6.596;2022-10-15T11:34:06;15.70;99.90
52859;DHT22;38721;53.098;6.596;2022-10-15T11:36:45;15.90;99.90
52859;DHT22;38721;53.098;6.596;2022-10-15T11:42:12;15.80;99.90
52859;DHT22;38721;53.098;6.596;2022-10-15T11:47:46;15.80;99.90
52859;DHT22;38721;53.098;6.596;2022-10-15T11:50:39;15.80;99.90
52859;DHT22;38721;53.098;6.596;2022-10-15T11:56:12;15.90;99.90
52859;DHT22;38721;53.098;6.596;2022-10-15T12:01:46;16.30;99.90
52859;DHT22;38721;53.098;6.596;2022-10-15T12:07:05;16.20;99.90
52859;DHT22;38721;53.098;6.596;2022-10-15T12:09:35;16.10;99.90
52859;DHT22;38721;53.098;6.596;2022-10-15T12:12:25;16.00;99.90
52859;DHT22;38721;53.098;6.596;2022-10-15T12:17:50;16.40;99.90
52859;DHT22;38721;53.098;6.596;2022-10-15T12:20:19;16.20;99.90
52859;DHT22;38721;53.098;6.596;2022-10-15T12:28:13;16.50;99.90
52859;DHT22;38721;53.098;6.596;2022-10-15T12:30:42;16.40;99.90
52859;DHT22;38721;53.098;6.596;2022-10-15T12:33:44;16.60;99.90
52859;DHT22;38721;53.098;6.596;2022-10-15T12:36:26;16.30;99.90
52859;DHT22;38721;53.098;6.596;2022-10-15T12:39:20;16.30;99.90
52859;DHT22;38721;53.098;6.596;2022-10-15T12:41:48;16.30;99.90
52859;DHT22;38721;53.098;6.596;2022-10-15T12:46:46;16.30;99.90
52859;DHT22;38721;53.098;6.596;2022-10-15T12:51:50;16.30;99.90
52859;DHT22;38721;53.098;6.596;2022-10-15T12:54:45;16.40;99.90
52859;DHT22;38721;53.098;6.596;2022-10-15T12:59:59;16.20;99.90
52859;DHT22;38721;53.098;6.596;2022-10-15T13:02:30;16.30;99.90
52859;DHT22;38721;53.098;6.596;2022-10-15T13:04:58;16.20;99.90
52859;DHT22;38721;53.098;6.596;2022-10-15T13:07:24;16.40;99.90
52859;DHT22;38721;53.098;6.596;2022-10-15T13:09:50;16.40;99.90
52859;DHT22;38721;53.098;6.596;2022-10-15T13:12:27;16.20;99.90
52859;DHT22;38721;53.098;6.596;2022-10-15T13:15:02;16.20;99.90
52859;DHT22;38721;53.098;6.596;2022-10-15T13:17:30;16.10;99.90
52859;DHT22;38721;53.098;6.596;2022-10-15T13:20:07;15.90;99.90
52859;DHT22;38721;53.098;6.596;2022-10-15T13:22:47;16.10;99.90
52859;DHT22;38721;53.098;6.596;2022-10-15T13:25:15;16.00;99.90
52859;DHT22;38721;53.098;6.596;2022-10-15T13:27:41;16.20;99.90
52859;DHT22;38721;53.098;6.596;2022-10-15T13:30:16;16.00;99.90
52859;DHT22;38721;53.098;6.596;2022-10-15T13:32:52;16.00;99.90
52859;DHT22;38721;53.098;6.596;2022-10-15T13:35:28;15.70;99.90
52859;DHT22;38721;53.098;6.596;2022-10-15T13:37:57;16.10;99.90
52859;DHT22;38721;53.098;6.596;2022-10-15T13:40:26;15.90;99.90
52859;DHT22;38721;53.098;6.596;2022-10-15T13:43:03;16.20;99.90
52859;DHT22;38721;53.098;6.596;2022-10-15T13:45:31;15.90;99.90
52859;DHT22;38721;53.098;6.596;2022-10-15T13:48:00;15.80;99.90
52859;DHT22;38721;53.098;6.596;2022-10-15T13:50:27;15.90;99.90
52859;DHT22;38721;53.098;6.596;2022-10-15T13:52:57;15.80;99.90
52859;DHT22;38721;53.098;6.596;2022-10-15T13:55:26;15.80;99.90
52859;DHT22;38721;53.098;6.596;2022-10-15T13:58:12;15.70;99.90
52859;DHT22;38721;53.098;6.596;2022-10-15T14:00:40;16.00;99.90
52859;DHT22;38721;53.098;6.596;2022-10-15T14:05:36;16.00;99.90
52859;DHT22;38721;53.098;6.596;2022-10-15T14:08:02;16.00;99.90
52859;DHT22;38721;53.098;6.596;2022-10-15T14:10:33;16.00;99.90
52859;DHT22;38721;53.098;6.596;2022-10-15T14:12:58;15.70;99.90
52859;DHT22;38721;53.098;6.596;2022-10-15T14:15:44;16.00;99.90
52859;DHT22;38721;53.098;6.596;2022-10-15T14:18:13;15.70;99.90
52859;DHT22;38721;53.098;6.596;2022-10-15T14:20:44;16.30;99.90
52859;DHT22;38721;53.098;6.596;2022-10-15T14:23:15;16.30;99.90
52859;DHT22;38721;53.098;6.596;2022-10-15T14:25:42;16.30;99.90
52859;DHT22;38721;53.098;6.596;2022-10-15T14:28:19;15.90;99.90
52859;DHT22;38721;53.098;6.596;2022-10-15T14:30:45;15.80;99.90
52859;DHT22;38721;53.098;6.596;2022-10-15T14:38:48;15.80;99.90
52859;DHT22;38721;53.098;6.596;2022-10-15T14:41:21;16.30;99.90
52859;DHT22;38721;53.098;6.596;2022-10-15T14:46:39;15.80;99.90
52859;DHT22;38721;53.098;6.596;2022-10-15T14:51:44;16.00;99.90
52859;DHT22;38721;53.098;6.596;2022-10-15T14:54:19;16.10;99.90
52859;DHT22;38721;53.098;6.596;2022-10-15T14:56:48;16.40;99.90
52859;DHT22;38721;53.098;6.596;2022-10-15T14:59:17;15.90;99.90
52859;DHT22;38721;53.098;6.596;2022-10-15T15:01:54;16.20;99.90
52859;DHT22;38721;53.098;6.596;2022-10-15T15:04:38;16.50;99.90
52859;DHT22;38721;53.098;6.596;2022-10-15T15:07:16;16.00;99.90
52859;DHT22;38721;53.098;6.596;2022-10-15T15:09:46;16.00;99.90
52859;DHT22;38721;53.098;6.596;2022-10-15T15:12:16;16.00;99.90
52859;DHT22;38721;53.098;6.596;2022-10-15T15:14:42;16.20;99.90
52859;DHT22;38721;53.098;6.596;2022-10-15T15:17:13;15.90;99.90
52859;DHT22;38721;53.098;6.596;2022-10-15T15:19:40;16.10;99.90
52859;DHT22;38721;53.098;6.596;2022-10-15T15:22:09;16.30;99.90
52859;DHT22;38721;53.098;6.596;2022-10-15T15:24:39;16.30;99.90
52859;DHT22;38721;53.098;6.596;2022-10-15T15:27:05;16.20;99.90
52859;DHT22;38721;53.098;6.596;2022-10-15T15:29:30;17.30;99.90
52859;DHT22;38721;53.098;6.596;2022-10-15T15:31:56;16.80;99.90
52859;DHT22;38721;53.098;6.596;2022-10-15T15:34:22;16.60;99.90
52859;DHT22;38721;53.098;6.596;2022-10-15T15:36:48;16.40;99.90
52859;DHT22;38721;53.098;6.596;2022-10-15T15:39:14;16.60;99.90
52859;DHT22;38721;53.098;6.596;2022-10-15T15:41:40;16.80;99.90
52859;DHT22;38721;53.098;6.596;2022-10-15T15:44:05;16.20;99.90
52859;DHT22;38721;53.098;6.596;2022-10-15T15:46:32;16.60;99.90
52859;DHT22;38721;53.098;6.596;2022-10-15T15:48:57;16.40;99.90
52859;DHT22;38721;53.098;6.596;2022-10-15T15:51:26;16.00;99.90
52859;DHT22;38721;53.098;6.596;2022-10-15T15:53:53;15.90;99.90
52859;DHT22;38721;53.098;6.596;2022-10-15T15:56:20;16.20;99.90
52859;DHT22;38721;53.098;6.596;2022-10-15T15:58:45;15.90;99.90
52859;DHT22;38721;53.098;6.596;2022-10-15T16:01:12;15.70;99.90
52859;DHT22;38721;53.098;6.596;2022-10-15T16:03:38;15.60;99.90
52859;DHT22;38721;53.098;6.596;2022-10-15T16:06:05;15.70;99.90
52859;DHT22;38721;53.098;6.596;2022-10-15T16:08:31;15.40;99.90
52859;DHT22;38721;53.098;6.596;2022-10-15T16:11:04;15.80;99.90
52859;DHT22;38721;53.098;6.596;2022-10-15T16:13:30;15.50;99.90
52859;DHT22;38721;53.098;6.596;2022-10-15T16:15:56;15.40;99.90
52859;DHT22;38721;53.098;6.596;2022-10-15T16:18:22;15.30;99.90
52859;DHT22;38721;53.098;6.596;2022-10-15T16:20:48;15.40;99.90
52859;DHT22;38721;53.098;6.596;2022-10-15T16:23:14;15.80;99.90
52859;DHT22;38721;53.098;6.596;2022-10-15T16:25:43;15.30;99.90
52859;DHT22;38721;53.098;6.596;2022-10-15T16:28:08;15.50;99.90
52859;DHT22;38721;53.098;6.596;2022-10-15T16:30:34;15.30;99.90
52859;DHT22;38721;53.098;6.596;2022-10-15T16:33:00;15.20;99.90
52859;DHT22;38721;53.098;6.596;2022-10-15T16:35:25;15.30;99.90
52859;DHT22;38721;53.098;6.596;2022-10-15T16:37:51;15.20;99.90
52859;DHT22;38721;53.098;6.596;2022-10-15T16:40:20;15.50;99.90
52859;DHT22;38721;53.098;6.596;2022-10-15T16:42:46;15.40;99.90
52859;DHT22;38721;53.098;6.596;2022-10-15T16:45:11;15.40;99.90
52859;DHT22;38721;53.098;6.596;2022-10-15T16:47:37;15.20;99.90
52859;DHT22;38721;53.098;6.596;2022-10-15T16:50:03;15.10;99.90
52859;DHT22;38721;53.098;6.596;2022-10-15T16:52:29;15.20;99.90
52859;DHT22;38721;53.098;6.596;2022-10-15T16:54:54;14.90;99.90
52859;DHT22;38721;53.098;6.596;2022-10-15T16:57:20;15.00;99.90
52859;DHT22;38721;53.098;6.596;2022-10-15T16:59:46;14.70;99.90
52859;DHT22;38721;53.098;6.596;2022-10-15T17:02:14;14.60;99.90
52859;DHT22;38721;53.098;6.596;2022-10-15T17:04:40;14.70;99.90
52859;DHT22;38721;53.098;6.596;2022-10-15T17:07:05;15.00;99.90
52859;DHT22;38721;53.098;6.596;2022-10-15T17:09:31;14.70;99.90
52859;DHT22;38721;53.098;6.596;2022-10-15T17:11:57;14.70;99.90
52859;DHT22;38721;53.098;6.596;2022-10-15T17:14:22;14.60;99.90
52859;DHT22;38721;53.098;6.596;2022-10-15T17:16:50;14.50;99.90
52859;DHT22;38721;53.098;6.596;2022-10-15T17:19:22;14.60;99.90
52859;DHT22;38721;53.098;6.596;2022-10-15T17:21:48;14.40;99.90
52859;DHT22;38721;53.098;6.596;2022-10-15T17:24:16;14.30;99.90
52859;DHT22;38721;53.098;6.596;2022-10-15T17:26:43;14.20;99.90
52859;DHT22;38721;53.098;6.596;2022-10-15T17:29:13;14.40;99.90
52859;DHT22;38721;53.098;6.596;2022-10-15T17:31:40;14.30;99.90
52859;DHT22;38721;53.098;6.596;2022-10-15T17:34:09;14.20;99.90
52859;DHT22;38721;53.098;6.596;2022-10-15T17:36:41;14.20;99.90
52859;DHT22;38721;53.098;6.596;2022-10-15T17:39:11;14.50;99.90
52859;DHT22;38721;53.098;6.596;2022-10-15T17:41:38;14.40;99.90
52859;DHT22;38721;53.098;6.596;2022-10-15T17:44:06;14.60;99.90
52859;DHT22;38721;53.098;6.596;2022-10-15T17:46:32;14.10;99.90
52859;DHT22;38721;53.098;6.596;2022-10-15T17:48:58;14.40;99.90
52859;DHT22;38721;53.098;6.596;2022-10-15T17:51:27;14.40;99.90
52859;DHT22;38721;53.098;6.596;2022-10-15T17:53:59;14.30;99.90
52859;DHT22;38721;53.098;6.596;2022-10-15T17:56:27;13.90;99.90
52859;DHT22;38721;53.098;6.596;2022-10-15T17:58:53;14.20;99.90
52859;DHT22;38721;53.098;6.596;2022-10-15T18:01:21;13.90;99.90